createdAt,value
2023-05-06T00:00:06.921Z,55.59
2023-05-06T00:02:33.354Z,55.29
2023-05-06T00:04:59.812Z,54.67
2023-05-06T00:07:26.137Z,55.01
2023-05-06T00:09:52.457Z,55.42
2023-05-06T00:12:18.784Z,55.05
2023-05-06T00:14:45.101Z,54.93
2023-05-06T00:17:11.447Z,54.78
2023-05-06T00:19:37.797Z,55.67
2023-05-06T00:22:04.116Z,56.08
2023-05-06T00:24:30.419Z,56.15
2023-05-06T00:26:56.770Z,56.80
2023-05-06T00:29:23.084Z,57.15
2023-05-06T00:31:49.457Z,57.21
2023-05-06T00:34:15.818Z,57.43
2023-05-06T00:36:42.116Z,58.41
2023-05-06T00:39:08.512Z,58.50
2023-05-06T00:41:34.829Z,57.10
2023-05-06T00:44:01.143Z,57.42
2023-05-06T00:46:27.566Z,57.68
2023-05-06T00:48:53.918Z,58.17
2023-05-06T00:51:20.233Z,57.70
2023-05-06T00:53:46.557Z,59.35
2023-05-06T00:56:12.876Z,59.60
2023-05-06T00:58:39.176Z,58.41
2023-05-06T01:01:05.547Z,58.54
2023-05-06T01:03:31.948Z,58.94
2023-05-06T01:05:58.319Z,60.08
2023-05-06T01:08:24.631Z,59.95
2023-05-06T01:10:50.944Z,60.38
2023-05-06T01:13:17.354Z,60.54
2023-05-06T01:15:43.710Z,60.69
2023-05-06T01:18:10.133Z,61.25
2023-05-06T01:20:36.509Z,61.67
2023-05-06T01:23:02.840Z,61.90
2023-05-06T01:25:29.166Z,61.58
2023-05-06T01:27:55.492Z,61.03
2023-05-06T01:30:21.813Z,60.78
2023-05-06T01:32:48.166Z,61.51
2023-05-06T01:35:14.490Z,60.68
2023-05-06T01:37:40.817Z,60.19
2023-05-06T01:40:07.131Z,60.01
2023-05-06T01:42:33.430Z,59.85
2023-05-06T01:44:59.759Z,59.25
2023-05-06T01:47:26.119Z,59.57
2023-05-06T01:49:52.471Z,59.55
2023-05-06T01:52:18.800Z,60.09
2023-05-06T01:54:45.098Z,60.28
2023-05-06T01:57:11.416Z,59.97
2023-05-06T01:59:37.737Z,59.80
2023-05-06T02:02:04.169Z,59.75
2023-05-06T02:04:30.870Z,60.08
2023-05-06T02:06:57.194Z,60.07
2023-05-06T02:09:23.523Z,60.06
2023-05-06T02:11:49.826Z,60.92
2023-05-06T02:14:16.156Z,60.76
2023-05-06T02:16:42.468Z,61.36
2023-05-06T02:19:08.808Z,61.71
2023-05-06T02:21:35.136Z,61.61
2023-05-06T02:24:01.455Z,61.10
2023-05-06T02:26:27.762Z,60.91
2023-05-06T02:28:54.103Z,60.99
2023-05-06T02:31:20.430Z,60.55
2023-05-06T02:33:46.787Z,62.75
2023-05-06T02:36:13.110Z,63.29
2023-05-06T02:38:39.422Z,63.05
2023-05-06T02:41:05.753Z,63.41
2023-05-06T02:43:32.170Z,63.21
2023-05-06T02:45:58.580Z,63.01
2023-05-06T02:48:24.926Z,63.24
2023-05-06T02:50:51.250Z,63.55
2023-05-06T02:53:17.569Z,63.24
2023-05-06T02:55:43.869Z,62.99
2023-05-06T02:58:10.186Z,62.88
2023-05-06T03:00:36.496Z,62.76
2023-05-06T03:03:02.819Z,62.15
2023-05-06T03:05:29.170Z,61.54
2023-05-06T03:07:55.487Z,62.45
2023-05-06T03:10:21.808Z,63.25
2023-05-06T03:12:48.161Z,63.24
2023-05-06T03:15:14.490Z,63.14
2023-05-06T03:17:40.842Z,63.38
2023-05-06T03:20:07.181Z,62.80
2023-05-06T03:22:33.502Z,62.94
2023-05-06T03:24:59.822Z,63.76
2023-05-06T03:27:26.151Z,62.94
2023-05-06T03:29:52.482Z,63.61
2023-05-06T03:32:18.806Z,63.63
2023-05-06T03:34:45.146Z,63.16
2023-05-06T03:37:11.465Z,63.32
2023-05-06T03:39:37.800Z,63.86
2023-05-06T03:42:04.128Z,63.96
2023-05-06T03:44:30.432Z,63.92
2023-05-06T03:46:56.765Z,63.00
2023-05-06T03:49:23.093Z,61.91
2023-05-06T03:51:49.405Z,61.85
2023-05-06T03:54:15.731Z,61.70
2023-05-06T03:56:42.041Z,63.37
2023-05-06T03:59:08.339Z,62.45
2023-05-06T04:01:34.661Z,62.42
2023-05-06T04:04:01.020Z,62.78
2023-05-06T04:06:27.355Z,62.50
2023-05-06T04:08:53.666Z,62.69
2023-05-06T04:11:19.958Z,62.34
2023-05-06T04:13:46.287Z,62.14
2023-05-06T04:16:12.678Z,61.81
2023-05-06T04:18:39.022Z,62.23
2023-05-06T04:21:05.337Z,62.23
2023-05-06T04:23:31.661Z,61.53
2023-05-06T04:25:58.096Z,61.93
2023-05-06T04:28:24.444Z,62.71
2023-05-06T04:30:50.759Z,62.46
2023-05-06T04:33:17.080Z,63.31
2023-05-06T04:35:43.452Z,64.27
2023-05-06T04:38:09.780Z,63.95
2023-05-06T04:40:36.116Z,63.54
2023-05-06T04:43:02.476Z,62.85
2023-05-06T04:45:28.822Z,62.83
2023-05-06T04:47:55.218Z,63.84
2023-05-06T04:50:21.551Z,64.20
2023-05-06T04:52:47.908Z,64.65
2023-05-06T04:55:14.212Z,64.84
2023-05-06T04:57:40.537Z,64.91
2023-05-06T05:00:06.907Z,64.81
2023-05-06T05:02:33.444Z,64.81
2023-05-06T05:04:59.766Z,64.79
2023-05-06T05:07:26.089Z,65.05
2023-05-06T05:09:52.394Z,65.68
2023-05-06T05:12:18.720Z,65.27
2023-05-06T05:14:45.024Z,65.54
2023-05-06T05:17:11.395Z,65.30
2023-05-06T05:19:37.724Z,65.10
2023-05-06T05:22:04.045Z,65.47
2023-05-06T05:24:30.367Z,65.74
2023-05-06T05:26:56.692Z,66.09
2023-05-06T05:29:23.019Z,65.38
2023-05-06T05:31:49.383Z,65.40
2023-05-06T05:34:15.751Z,65.70
2023-05-06T05:36:42.098Z,65.57
2023-05-06T05:39:08.411Z,65.86
2023-05-06T05:41:34.718Z,65.63
2023-05-06T05:44:01.021Z,65.83
2023-05-06T05:46:27.351Z,66.62
2023-05-06T05:48:53.710Z,66.75
2023-05-06T05:51:20.157Z,67.34
2023-05-06T05:53:46.503Z,66.33
2023-05-06T05:56:13.021Z,66.63
2023-05-06T05:58:39.354Z,66.45
2023-05-06T06:01:05.652Z,66.66
2023-05-06T06:03:32.128Z,66.37
2023-05-06T06:05:58.568Z,66.80
2023-05-06T06:08:24.918Z,66.16
2023-05-06T06:10:51.236Z,66.42
2023-05-06T06:13:17.583Z,66.79
2023-05-06T06:15:43.939Z,67.11
2023-05-06T06:18:10.315Z,66.63
2023-05-06T06:20:36.630Z,66.69
2023-05-06T06:23:02.954Z,66.12
2023-05-06T06:25:29.277Z,65.75
2023-05-06T06:27:55.614Z,65.04
2023-05-06T06:30:21.917Z,65.77
2023-05-06T06:32:48.279Z,65.98
2023-05-06T06:35:14.610Z,65.63
2023-05-06T06:37:41.156Z,65.96
2023-05-06T06:40:07.481Z,65.15
2023-05-06T06:42:33.811Z,65.40
2023-05-06T06:45:00.187Z,65.55
2023-05-06T06:47:26.531Z,66.26
2023-05-06T06:49:52.876Z,66.92
2023-05-06T06:52:19.187Z,66.81
2023-05-06T06:54:45.526Z,67.01
2023-05-06T06:57:11.837Z,66.50
2023-05-06T06:59:38.153Z,64.99
2023-05-06T07:02:04.550Z,65.85
2023-05-06T07:04:30.904Z,65.12
2023-05-06T07:06:57.245Z,64.83
2023-05-06T07:09:23.568Z,64.70
2023-05-06T07:11:49.899Z,64.43
2023-05-06T07:14:16.221Z,64.13
2023-05-06T07:16:44.527Z,63.63
2023-05-06T07:19:12.303Z,65.06
2023-05-06T07:21:38.614Z,65.02
2023-05-06T07:24:04.918Z,64.23
2023-05-06T07:26:31.246Z,64.16
2023-05-06T07:28:57.612Z,63.55
2023-05-06T07:31:23.950Z,64.20
2023-05-06T07:33:50.306Z,63.31
2023-05-06T07:36:16.622Z,64.23
2023-05-06T07:38:42.934Z,63.62
2023-05-06T07:41:09.233Z,63.60
2023-05-06T07:43:35.561Z,64.14
2023-05-06T07:46:01.945Z,64.00
2023-05-06T07:48:28.326Z,63.07
2023-05-06T07:50:54.666Z,63.21
2023-05-06T07:53:20.975Z,63.31
2023-05-06T07:55:47.283Z,63.50
2023-05-06T07:58:13.606Z,63.09
2023-05-06T08:00:39.958Z,62.98
2023-05-06T08:03:06.356Z,63.16
2023-05-06T08:05:32.736Z,62.09
2023-05-06T08:07:59.074Z,62.66
2023-05-06T08:10:25.396Z,61.05
2023-05-06T08:12:51.793Z,61.47
2023-05-06T08:15:18.140Z,60.35
2023-05-06T08:17:44.477Z,60.43
2023-05-06T08:20:10.814Z,61.02
2023-05-06T08:22:37.141Z,59.69
2023-05-06T08:25:03.513Z,58.70
2023-05-06T08:27:29.859Z,59.01
2023-05-06T08:29:56.181Z,59.34
2023-05-06T08:32:22.644Z,59.10
2023-05-06T08:34:49.017Z,59.07
2023-05-06T08:37:15.349Z,58.32
2023-05-06T08:39:41.714Z,59.34
2023-05-06T08:42:08.024Z,58.43
2023-05-06T08:44:34.369Z,58.44
2023-05-06T08:47:00.692Z,57.17
2023-05-06T08:49:27.017Z,57.47
2023-05-06T08:51:53.335Z,56.82
2023-05-06T08:54:19.662Z,56.23
2023-05-06T08:56:45.986Z,55.30
2023-05-06T08:59:12.303Z,55.52
2023-05-06T09:01:38.795Z,54.78
2023-05-06T09:04:05.212Z,55.22
2023-05-06T09:06:31.540Z,52.99
2023-05-06T09:08:57.838Z,53.38
2023-05-06T09:11:24.186Z,53.59
2023-05-06T09:13:50.506Z,53.75
2023-05-06T09:16:16.855Z,53.21
2023-05-06T09:18:43.222Z,52.48
2023-05-06T09:21:09.528Z,53.01
2023-05-06T09:23:35.848Z,52.70
2023-05-06T09:26:02.346Z,51.35
2023-05-06T09:28:28.685Z,51.57
2023-05-06T09:30:55.038Z,52.29
2023-05-06T09:33:21.358Z,50.69
2023-05-06T09:35:47.700Z,50.00
2023-05-06T09:38:14.017Z,50.85
2023-05-06T09:40:40.337Z,53.48
2023-05-06T09:43:06.690Z,54.04
2023-05-06T09:45:33.190Z,53.37
2023-05-06T09:47:59.705Z,54.52
2023-05-06T09:50:26.040Z,54.59
2023-05-06T09:52:52.475Z,53.62
2023-05-06T09:55:18.800Z,53.88
2023-05-06T10:00:11.428Z,53.86
2023-05-06T10:02:37.928Z,52.29
2023-05-06T10:05:04.664Z,52.91
2023-05-06T10:07:31.153Z,51.39
2023-05-06T10:09:57.462Z,50.60
2023-05-06T10:12:23.796Z,52.26
2023-05-06T10:14:50.124Z,52.34
2023-05-06T10:17:16.445Z,52.45
2023-05-06T10:19:42.758Z,51.69
2023-05-06T10:22:09.086Z,50.79
2023-05-06T10:24:35.405Z,51.30
2023-05-06T10:27:01.715Z,48.27
2023-05-06T10:29:28.053Z,49.87
2023-05-06T10:31:54.369Z,51.16
2023-05-06T10:34:20.708Z,51.16
2023-05-06T10:36:47.056Z,51.17
2023-05-06T10:39:13.393Z,51.70
2023-05-06T10:41:39.721Z,51.01
2023-05-06T10:44:06.049Z,49.99
2023-05-06T10:46:32.389Z,50.72
2023-05-06T10:48:58.725Z,50.87
2023-05-06T10:51:25.041Z,50.32
2023-05-06T10:53:51.365Z,49.89
2023-05-06T10:56:17.689Z,51.18
2023-05-06T10:58:44.020Z,50.35
2023-05-06T11:01:10.399Z,50.38
2023-05-06T11:03:36.743Z,49.88
2023-05-06T11:06:03.139Z,47.76
2023-05-06T11:08:29.467Z,48.03
2023-05-06T11:10:55.791Z,47.50
2023-05-06T11:13:22.238Z,49.22
2023-05-06T11:15:48.706Z,48.45
2023-05-06T11:18:15.037Z,49.65
2023-05-06T11:20:41.357Z,50.17
2023-05-06T11:23:07.678Z,49.31
2023-05-06T11:25:34.002Z,49.38
2023-05-06T11:28:00.313Z,49.18
2023-05-06T11:30:26.636Z,47.61
2023-05-06T11:32:52.998Z,48.34
2023-05-06T11:35:19.327Z,45.31
2023-05-06T11:37:45.693Z,47.31
2023-05-06T11:40:12.174Z,46.51
2023-05-06T11:42:38.698Z,46.30
2023-05-06T11:45:05.012Z,46.42
2023-05-06T11:47:31.332Z,46.92
2023-05-06T11:49:57.673Z,46.40
2023-05-06T11:52:23.978Z,47.36
2023-05-06T11:54:50.324Z,46.66
2023-05-06T11:57:16.646Z,48.24
2023-05-06T11:59:42.976Z,46.72
2023-05-06T12:02:09.290Z,46.33
2023-05-06T12:04:35.616Z,46.94
2023-05-06T12:07:01.973Z,46.70
2023-05-06T12:09:28.305Z,46.20
2023-05-06T12:11:54.633Z,46.16
2023-05-06T12:14:20.945Z,45.96
2023-05-06T12:16:47.349Z,46.31
2023-05-06T12:19:13.691Z,46.28
2023-05-06T12:21:40.018Z,45.42
2023-05-06T12:24:06.403Z,45.75
2023-05-06T12:26:32.727Z,45.81
2023-05-06T12:28:59.047Z,46.17
2023-05-06T12:31:25.391Z,45.61
2023-05-06T12:33:51.731Z,45.04
2023-05-06T12:36:18.102Z,44.60
2023-05-06T12:38:44.451Z,44.84
2023-05-06T12:41:10.765Z,46.48
2023-05-06T12:43:37.125Z,45.87
2023-05-06T12:46:03.514Z,46.32
2023-05-06T12:48:29.857Z,44.98
2023-05-06T12:50:56.174Z,45.04
2023-05-06T12:53:22.514Z,45.48
2023-05-06T12:55:48.839Z,46.63
2023-05-06T12:58:15.194Z,45.22
2023-05-06T13:00:41.608Z,45.20
2023-05-06T13:03:08.080Z,45.21
2023-05-06T13:05:34.527Z,45.17
2023-05-06T13:08:00.867Z,44.82
2023-05-06T13:10:27.231Z,45.50
2023-05-06T13:12:53.633Z,45.69
2023-05-06T13:15:20.023Z,45.39
2023-05-06T13:17:46.417Z,45.24
2023-05-06T13:20:12.999Z,45.32
2023-05-06T13:22:53.252Z,46.16
2023-05-06T13:25:20.459Z,46.04
2023-05-06T13:27:46.789Z,45.41
2023-05-06T13:30:13.250Z,45.38
2023-05-06T13:32:39.730Z,45.67
2023-05-06T13:35:06.146Z,45.93
2023-05-06T13:37:32.476Z,46.56
2023-05-06T13:39:58.778Z,45.99
2023-05-06T13:42:25.104Z,46.56
2023-05-06T13:44:51.436Z,46.62
2023-05-06T13:47:17.749Z,47.27
2023-05-06T13:49:44.078Z,47.24
2023-05-06T13:52:10.410Z,47.43
2023-05-06T13:54:36.722Z,46.16
2023-05-06T13:57:03.042Z,46.90
2023-05-06T13:59:29.349Z,46.79
2023-05-06T14:01:56.216Z,46.85
2023-05-06T14:04:22.523Z,45.80
2023-05-06T14:06:48.840Z,46.57
2023-05-06T14:09:15.160Z,46.56
2023-05-06T14:11:41.474Z,46.79
2023-05-06T14:14:07.805Z,45.75
2023-05-06T14:16:34.154Z,47.16
2023-05-06T14:19:00.569Z,46.33
2023-05-06T14:21:26.917Z,45.80
2023-05-06T14:23:53.657Z,47.11
2023-05-06T14:26:19.981Z,47.50
2023-05-06T14:28:46.319Z,47.28
2023-05-06T14:31:12.696Z,46.52
2023-05-06T14:33:39.050Z,46.68
2023-05-06T14:36:05.376Z,47.07
2023-05-06T14:38:31.681Z,48.81
2023-05-06T14:40:59.424Z,50.99
2023-05-06T14:43:25.938Z,51.27
2023-05-06T14:45:52.267Z,49.71
2023-05-06T14:48:18.600Z,50.27
2023-05-06T14:50:44.920Z,50.34
2023-05-06T14:53:11.254Z,51.38
2023-05-06T14:55:37.568Z,52.50
2023-05-06T14:58:03.911Z,52.71
2023-05-06T15:00:30.245Z,52.87
2023-05-06T15:02:56.637Z,53.74
2023-05-06T15:05:23.055Z,52.62
2023-05-06T15:07:49.366Z,53.19
2023-05-06T15:10:15.669Z,53.12
2023-05-06T15:12:42.003Z,49.67
2023-05-06T15:15:08.534Z,51.42
2023-05-06T15:17:34.977Z,53.13
2023-05-06T15:20:01.451Z,53.40
2023-05-06T15:22:27.852Z,54.83
2023-05-06T15:24:54.175Z,55.70
2023-05-06T15:27:20.510Z,52.03
2023-05-06T15:29:46.821Z,53.38
2023-05-06T15:32:13.140Z,54.24
2023-05-06T15:34:39.438Z,54.11
2023-05-06T15:37:05.764Z,53.39
2023-05-06T15:39:32.096Z,53.24
2023-05-06T15:41:58.408Z,55.20
2023-05-06T15:44:26.873Z,54.86
2023-05-06T15:46:53.432Z,53.83
2023-05-06T15:49:48.769Z,53.71
2023-05-06T15:52:06.044Z,52.75
2023-05-06T15:54:33.580Z,55.51
2023-05-06T15:57:01.063Z,53.96
2023-05-06T15:59:27.369Z,53.86
2023-05-06T16:04:23.031Z,47.09
2023-05-06T16:06:49.530Z,50.33
2023-05-06T16:09:15.864Z,47.08
2023-05-06T16:11:42.184Z,44.54
2023-05-06T16:14:08.491Z,46.34
2023-05-06T16:16:35.210Z,46.00
2023-05-06T16:19:01.733Z,46.85
2023-05-06T16:21:28.070Z,46.55
2023-05-06T16:23:54.373Z,47.80
2023-05-06T16:26:20.677Z,47.00
2023-05-06T16:28:46.994Z,45.98
2023-05-06T16:31:13.342Z,44.57
2023-05-06T16:33:39.697Z,44.78
2023-05-06T16:36:06.010Z,43.76
2023-05-06T16:38:32.363Z,45.01
2023-05-06T16:40:58.706Z,45.31
2023-05-06T16:43:25.006Z,45.45
2023-05-06T16:45:51.327Z,45.83
2023-05-06T16:48:17.795Z,46.50
2023-05-06T16:50:44.228Z,46.72
2023-05-06T16:53:10.569Z,46.44
2023-05-06T16:55:36.876Z,46.07
2023-05-06T16:58:03.190Z,45.97
2023-05-06T17:00:29.494Z,46.66
2023-05-06T17:02:55.909Z,46.06
2023-05-06T17:05:22.376Z,46.47
2023-05-06T17:07:49.143Z,46.92
2023-05-06T17:10:16.614Z,47.71
2023-05-06T17:12:43.042Z,48.46
2023-05-06T17:15:09.399Z,49.11
2023-05-06T17:17:35.760Z,48.89
2023-05-06T17:20:02.157Z,50.28
2023-05-06T17:22:28.481Z,50.33
2023-05-06T17:24:54.807Z,50.45
2023-05-06T17:27:21.155Z,49.77
2023-05-06T17:29:47.456Z,48.56
2023-05-06T17:32:13.779Z,47.71
2023-05-06T17:34:40.100Z,47.62
2023-05-06T17:37:06.430Z,47.56
2023-05-06T17:39:32.748Z,47.96
2023-05-06T17:41:59.061Z,48.57
2023-05-06T17:44:25.369Z,47.52
2023-05-06T17:46:51.782Z,48.51
2023-05-06T17:49:18.106Z,48.39
2023-05-06T17:51:44.417Z,49.48
2023-05-06T17:54:10.723Z,46.04
2023-05-06T17:56:37.025Z,46.32
2023-05-06T17:59:03.343Z,46.17
2023-05-06T18:01:29.741Z,46.69
2023-05-06T18:03:56.259Z,46.82
2023-05-06T18:06:22.664Z,48.00
2023-05-06T18:08:48.964Z,47.21
2023-05-06T18:11:15.289Z,49.12
2023-05-06T18:13:41.598Z,48.49
2023-05-06T18:16:07.944Z,49.07
2023-05-06T18:18:34.287Z,49.75
2023-05-06T18:21:00.643Z,51.32
2023-05-06T18:23:26.969Z,52.14
2023-05-06T18:25:53.292Z,51.46
2023-05-06T18:28:20.716Z,51.74
2023-05-06T18:30:47.037Z,51.11
2023-05-06T18:33:13.421Z,51.46
2023-05-06T18:35:39.748Z,52.69
2023-05-06T18:38:06.074Z,52.61
2023-05-06T18:40:32.394Z,52.84
2023-05-06T18:42:58.704Z,52.60
2023-05-06T18:45:25.035Z,52.12
2023-05-06T18:47:51.384Z,52.43
2023-05-06T18:50:17.732Z,52.96
2023-05-06T18:52:44.061Z,52.39
2023-05-06T18:55:10.487Z,53.57
2023-05-06T18:57:36.923Z,52.72
2023-05-06T19:00:03.249Z,53.14
2023-05-06T19:02:29.595Z,52.92
2023-05-06T19:04:55.933Z,53.25
2023-05-06T19:07:22.271Z,53.84
2023-05-06T19:09:48.617Z,53.58
2023-05-06T19:12:14.938Z,53.70
2023-05-06T19:14:41.277Z,52.61
2023-05-06T19:17:07.653Z,53.22
2023-05-06T19:19:34.030Z,52.76
2023-05-06T19:22:00.341Z,52.55
2023-05-06T19:24:26.666Z,53.20
2023-05-06T19:26:52.989Z,53.79
2023-05-06T19:29:19.308Z,54.18
2023-05-06T19:31:45.627Z,53.22
2023-05-06T19:34:11.966Z,53.75
2023-05-06T19:36:38.317Z,53.01
2023-05-06T19:39:04.642Z,54.35
2023-05-06T19:41:30.983Z,53.58
2023-05-06T19:43:57.325Z,53.54
2023-05-06T19:46:23.689Z,53.17
2023-05-06T19:48:50.037Z,53.09
2023-05-06T19:51:16.350Z,52.93
2023-05-06T19:53:42.671Z,53.14
2023-05-06T19:56:09.024Z,53.21
2023-05-06T19:58:35.347Z,52.69
2023-05-06T20:01:01.652Z,53.26
2023-05-06T20:03:28.028Z,53.46
2023-05-06T20:05:54.376Z,53.42
2023-05-06T20:08:20.677Z,53.77
2023-05-06T20:10:47.047Z,54.41
2023-05-06T20:13:13.385Z,54.57
2023-05-06T20:15:39.758Z,54.61
2023-05-06T20:18:06.092Z,54.83
2023-05-06T20:20:32.456Z,54.57
2023-05-06T20:22:58.782Z,54.41
2023-05-06T20:25:25.113Z,54.46
2023-05-06T20:27:51.498Z,54.04
2023-05-06T20:30:17.858Z,54.13
2023-05-06T20:32:44.236Z,54.60
2023-05-06T20:35:10.850Z,54.68
2023-05-06T20:37:37.342Z,54.86
2023-05-06T20:40:03.670Z,54.78
2023-05-06T20:42:29.988Z,55.42
2023-05-06T20:44:56.312Z,55.69
2023-05-06T20:47:22.675Z,55.74
2023-05-06T20:49:49.107Z,55.02
2023-05-06T20:52:15.462Z,54.60
2023-05-06T20:54:41.797Z,55.00
2023-05-06T20:57:08.323Z,55.19
2023-05-06T20:59:34.721Z,55.29
2023-05-06T21:02:01.137Z,55.83
2023-05-06T21:04:27.477Z,56.25
2023-05-06T21:06:53.791Z,56.05
2023-05-06T21:09:20.108Z,55.78
2023-05-06T21:11:46.444Z,55.50
2023-05-06T21:14:12.763Z,56.16
2023-05-06T21:16:39.063Z,56.10
2023-05-06T21:19:05.393Z,56.05
2023-05-06T21:21:31.707Z,55.86
2023-05-06T21:23:58.013Z,55.97
2023-05-06T21:26:24.321Z,56.00
2023-05-06T21:28:50.634Z,56.28
2023-05-06T21:31:17.051Z,56.09
2023-05-06T21:33:43.378Z,56.10
2023-05-06T21:36:09.687Z,56.42
2023-05-06T21:38:36.010Z,56.23
2023-05-06T21:41:02.316Z,56.20
2023-05-06T21:43:29.809Z,56.47
2023-05-06T21:45:57.051Z,56.71
2023-05-06T21:48:23.414Z,56.36
2023-05-06T21:50:49.767Z,56.97
2023-05-06T21:53:16.092Z,56.70
2023-05-06T21:55:42.414Z,56.86
2023-05-06T21:58:08.763Z,57.10
2023-05-06T22:00:35.095Z,57.38
2023-05-06T22:03:01.487Z,57.16
2023-05-06T22:05:27.890Z,56.76
2023-05-06T22:07:54.193Z,56.74
2023-05-06T22:10:20.518Z,56.99
2023-05-06T22:12:46.853Z,57.27
2023-05-06T22:15:13.344Z,57.20
2023-05-06T22:17:39.832Z,57.31
2023-05-06T22:20:06.198Z,57.42
2023-05-06T22:22:32.814Z,57.65
2023-05-06T22:24:59.112Z,57.28
2023-05-06T22:27:25.413Z,57.40
2023-05-06T22:29:51.870Z,57.46
2023-05-06T22:32:18.187Z,57.62
2023-05-06T22:34:44.492Z,58.11
2023-05-06T22:37:10.824Z,57.79
2023-05-06T22:39:37.168Z,58.23
2023-05-06T22:42:03.479Z,58.88
2023-05-06T22:44:29.783Z,58.53
2023-05-06T22:46:56.111Z,58.52
2023-05-06T22:49:22.427Z,58.41
2023-05-06T22:51:48.732Z,58.72
2023-05-06T22:54:15.056Z,58.62
2023-05-06T22:56:41.374Z,58.66
2023-05-06T22:59:07.716Z,58.74
2023-05-06T23:01:34.068Z,58.91
2023-05-06T23:04:00.445Z,58.47
2023-05-06T23:06:26.789Z,58.56
2023-05-06T23:08:53.446Z,58.27
2023-05-06T23:11:19.843Z,58.66
2023-05-06T23:13:46.169Z,58.93
2023-05-06T23:16:12.533Z,59.74
2023-05-06T23:18:38.954Z,59.00
2023-05-06T23:21:05.289Z,58.53
2023-05-06T23:23:31.593Z,58.60
2023-05-06T23:25:57.917Z,58.93
2023-05-06T23:28:24.252Z,58.95
2023-05-06T23:30:50.622Z,59.39
2023-05-06T23:33:16.965Z,59.82
2023-05-06T23:35:43.294Z,59.93
2023-05-06T23:38:09.626Z,60.03
2023-05-06T23:40:35.948Z,60.30
2023-05-06T23:43:02.305Z,60.67
2023-05-06T23:45:28.643Z,60.12
2023-05-06T23:47:55.009Z,59.25
2023-05-06T23:50:21.385Z,59.30
2023-05-06T23:52:47.703Z,59.74
2023-05-06T23:55:14.268Z,59.70
2023-05-06T23:57:40.777Z,59.67
